Time;durP1;ratioP1;P1;durP2;ratioP2;P2;SDS_P1;SDS_P2;PMS_P1;PMS_P2;Temp;Humidity;BMP_temperature;BMP_pressure;BME280_temperature;BME280_humidity;BME280_pressure;Samples;Min_cycle;Max_cycle;Signal;HPM_P1;HPM_P2
2024/03/16 00:01:10;;;;;;;9.10;5.88;;;;;;;11.13;100.00;100248.00;4919962;29;20043;-83
2024/03/16 00:03:46;;;;;;;10.35;5.85;;;;;;;11.10;100.00;100240.19;4931556;29;20078;-82
2024/03/16 00:06:16;;;;;;;7.97;5.82;;;;;;;11.08;100.00;100241.97;4936210;29;20390;-83
2024/03/16 00:08:48;;;;;;;10.70;5.68;;;;;;;11.09;100.00;100246.31;4926104;29;20381;-84
2024/03/16 00:11:15;;;;;;;11.02;6.03;;;;;;;11.09;100.00;100239.34;4917516;29;20150;-84
2024/03/16 00:13:43;;;;;;;8.30;5.53;;;;;;;11.08;100.00;100237.59;4914174;29;20039;-82
2024/03/16 00:16:09;;;;;;;7.78;5.80;;;;;;;11.05;100.00;100240.25;4924027;29;20035;-84
2024/03/16 00:18:38;;;;;;;9.15;6.32;;;;;;;11.06;100.00;100233.28;4911775;29;20071;-84
2024/03/16 00:21:06;;;;;;;10.93;6.75;;;;;;;11.09;100.00;100234.09;4947183;29;20058;-83
2024/03/16 00:23:38;;;;;;;11.95;5.85;;;;;;;11.14;100.00;100233.16;4922203;28;20222;-83
2024/03/16 00:26:05;;;;;;;10.73;5.43;;;;;;;11.15;100.00;100234.88;4956392;28;20153;-82
2024/03/16 00:28:43;;;;;;;8.70;5.32;;;;;;;11.15;100.00;100232.28;4943630;29;20119;-85
2024/03/16 00:31:10;;;;;;;10.57;5.75;;;;;;;11.13;100.00;100234.88;4930736;29;20043;-83
2024/03/16 00:33:45;;;;;;;8.18;4.80;;;;;;;11.14;100.00;100238.41;4944050;29;20778;-83
2024/03/16 00:36:12;;;;;;;12.05;7.43;;;;;;;11.16;100.00;100233.97;4961784;28;20047;-83
2024/03/16 00:38:39;;;;;;;9.73;6.80;;;;;;;11.18;100.00;100237.44;4947151;28;20043;-82
2024/03/16 00:41:07;;;;;;;11.98;5.53;;;;;;;11.17;100.00;100236.59;4945287;29;20047;-84
2024/03/16 00:43:36;;;;;;;8.45;5.95;;;;;;;11.20;100.00;100233.06;4940240;28;20423;-83
2024/03/16 00:46:03;;;;;;;9.43;5.63;;;;;;;11.22;100.00;100232.13;4927643;29;20111;-83
2024/03/16 00:48:33;;;;;;;11.43;6.10;;;;;;;11.21;100.00;100227.78;4930346;28;20047;-81
2024/03/16 00:51:04;;;;;;;7.70;5.15;;;;;;;11.20;100.00;100235.66;4952173;28;20046;-83
2024/03/16 00:53:30;;;;;;;13.52;6.00;;;;;;;11.18;100.00;100235.66;4954486;28;20049;-83
2024/03/16 00:55:57;;;;;;;11.10;5.90;;;;;;;11.17;100.00;100235.69;4953413;29;20055;-83
2024/03/16 00:58:27;;;;;;;12.48;6.65;;;;;;;11.18;100.00;100240.91;4941643;29;20127;-83
2024/03/16 01:01:03;;;;;;;10.80;6.10;;;;;;;11.22;100.00;100239.09;4937999;28;20055;-84
2024/03/16 01:03:32;;;;;;;8.98;5.93;;;;;;;11.25;100.00;100231.19;4929584;29;20128;-85
2024/03/16 01:05:59;;;;;;;12.50;6.85;;;;;;;11.28;100.00;100231.13;4947035;29;20067;-83
2024/03/16 01:08:26;;;;;;;12.80;6.00;;;;;;;11.27;100.00;100221.53;4960631;28;20043;-83
2024/03/16 01:11:10;;;;;;;11.85;6.80;;;;;;;11.27;100.00;100229.41;4960316;28;20066;-82
2024/03/16 01:13:43;;;;;;;9.48;6.35;;;;;;;11.26;100.00;100222.44;4935044;28;20055;-85
2024/03/16 01:16:13;;;;;;;10.73;5.85;;;;;;;11.28;100.00;100222.41;4953304;28;20047;-82
2024/03/16 01:18:42;;;;;;;7.25;5.93;;;;;;;11.29;100.00;100222.41;4941018;28;20138;-83
2024/03/16 01:21:09;;;;;;;10.90;6.47;;;;;;;11.27;100.00;100226.78;4930973;29;20058;-83
2024/03/16 01:23:37;;;;;;;11.48;5.65;;;;;;;11.30;100.00;100226.72;4950982;28;20132;-85
2024/03/16 01:26:11;;;;;;;9.68;5.50;;;;;;;11.32;100.00;100234.56;4938454;29;20057;-82
2024/03/16 01:28:40;;;;;;;11.13;5.75;;;;;;;11.36;100.00;100216.13;4944981;28;20781;-83
2024/03/16 01:31:08;;;;;;;9.20;5.57;;;;;;;11.44;100.00;100226.47;4948421;29;20043;-83
2024/03/16 01:33:36;;;;;;;11.50;6.30;;;;;;;11.48;100.00;100217.63;4945391;28;20412;-83
2024/03/16 01:36:07;;;;;;;10.70;5.15;;;;;;;11.48;100.00;100217.63;4941993;28;20155;-84
2024/03/16 01:38:37;;;;;;;7.13;4.35;;;;;;;11.39;100.00;100220.44;4945230;28;20612;-83
2024/03/16 01:41:07;;;;;;;6.95;4.25;;;;;;;11.38;100.00;100214.34;4928765;29;20055;-82
2024/03/16 01:43:35;;;;;;;5.90;4.03;;;;;;;11.37;100.00;100225.72;4944789;29;20057;-85
2024/03/16 01:46:04;;;;;;;8.05;3.88;;;;;;;11.37;100.00;100230.13;4931514;28;20042;-83
2024/03/16 01:48:31;;;;;;;8.32;3.92;;;;;;;11.39;100.00;100223.06;4934039;29;20043;-83
2024/03/16 01:50:58;;;;;;;7.90;3.67;;;;;;;11.39;100.00;100230.94;4930184;28;20042;-82
2024/03/16 01:53:32;;;;;;;7.25;3.58;;;;;;;11.37;100.00;100227.50;4941005;28;20180;-84
2024/03/16 01:56:02;;;;;;;9.55;4.20;;;;;;;11.29;100.00;100226.75;4928263;28;20114;-83
2024/03/16 01:58:42;;;;;;;6.35;3.28;;;;;;;11.27;100.00;100231.19;4926710;29;20121;-82
2024/03/16 02:01:14;;;;;;;9.10;4.25;;;;;;;11.29;100.00;100230.25;4932873;28;20042;-84
2024/03/16 02:03:47;;;;;;;6.50;3.88;;;;;;;11.31;100.00;100232.84;4943093;28;20127;-82
2024/03/16 02:06:14;;;;;;;5.60;3.20;;;;;;;11.28;100.00;100219.78;4958091;28;20039;-82
2024/03/16 02:08:41;;;;;;;6.07;3.40;;;;;;;11.25;100.00;100223.31;4945612;28;20043;-82
2024/03/16 02:11:10;;;;;;;7.43;4.07;;;;;;;11.18;100.00;100222.56;4930573;29;20138;-83
2024/03/16 02:13:37;;;;;;;9.55;4.03;;;;;;;11.20;100.00;100218.19;4930638;28;20055;-84
2024/03/16 02:16:10;;;;;;;7.10;4.25;;;;;;;11.21;100.00;100217.28;4958775;28;20067;-82
2024/03/16 02:18:40;;;;;;;7.13;3.45;;;;;;;11.18;100.00;100214.72;4925450;28;20047;-82
2024/03/16 02:21:11;;;;;;;6.90;4.07;;;;;;;11.19;100.00;100216.44;4942117;28;20055;-85
2024/03/16 02:23:43;;;;;;;8.20;4.13;;;;;;;11.14;100.00;100215.66;4928159;29;20051;-82
2024/03/16 02:26:11;;;;;;;5.97;3.63;;;;;;;11.16;100.00;100218.25;4924424;29;20036;-83
2024/03/16 02:28:38;;;;;;;6.70;3.80;;;;;;;11.09;100.00;100221.00;4913477;29;20044;-82
2024/03/16 02:31:04;;;;;;;6.00;3.67;;;;;;;11.08;100.00;100227.13;4907641;29;20450;-83
2024/03/16 02:33:32;;;;;;;3.80;3.17;;;;;;;11.04;100.00;100227.19;4941654;29;20079;-82
2024/03/16 02:35:58;;;;;;;9.45;4.70;;;;;;;10.89;100.00;100207.41;4924571;29;20051;-83
2024/03/16 02:38:33;;;;;;;7.47;4.45;;;;;;;10.84;100.00;100224.94;4925857;29;20483;-83
2024/03/16 02:41:07;;;;;;;10.60;5.18;;;;;;;10.78;100.00;100219.78;4919162;29;20047;-83
2024/03/16 02:43:34;;;;;;;7.63;5.68;;;;;;;10.75;100.00;100215.47;4928395;29;20130;-82
2024/03/16 02:46:05;;;;;;;12.60;5.75;;;;;;;10.71;100.00;100217.28;4930278;29;20051;-83
2024/03/16 02:48:34;;;;;;;10.75;6.25;;;;;;;10.65;100.00;100217.41;4921380;29;20048;-82
2024/03/16 02:51:04;;;;;;;12.40;5.32;;;;;;;10.61;100.00;100222.69;4901593;29;20051;-84
2024/03/16 02:53:34;;;;;;;15.20;7.07;;;;;;;10.57;100.00;100227.09;4924449;29;20048;-85
2024/03/16 02:56:12;;;;;;;12.43;6.25;;;;;;;10.59;100.00;100231.44;4932313;29;20058;-84
2024/03/16 02:58:40;;;;;;;8.88;6.57;;;;;;;10.61;100.00;100234.00;4932674;29;20044;-84
2024/03/16 03:01:10;;;;;;;18.50;7.00;;;;;;;10.62;100.00;100235.75;4912344;29;20099;-83
2024/03/16 03:03:37;;;;;;;14.13;6.53;;;;;;;10.59;100.00;100233.19;4924918;29;20260;-83
2024/03/16 03:06:08;;;;;;;10.18;6.57;;;;;;;10.53;100.00;100236.78;4908972;29;20075;-84
2024/03/16 03:08:40;;;;;;;8.50;7.22;;;;;;;10.53;100.00;100233.28;4935940;29;20130;-82
2024/03/16 03:11:14;;;;;;;9.60;6.47;;;;;;;10.57;100.00;100242.81;4913068;29;20070;-85
2024/03/16 03:13:47;;;;;;;12.48;6.60;;;;;;;10.64;100.00;100243.56;4908298;29;20080;-83
2024/03/16 03:16:19;;;;;;;16.27;8.18;;;;;;;10.66;100.00;100241.81;4908188;29;20139;-83
2024/03/16 03:18:51;;;;;;;11.65;7.20;;;;;;;10.61;100.00;100246.25;4916536;29;20055;-82
2024/03/16 03:21:18;;;;;;;8.95;5.43;;;;;;;10.59;100.00;100241.91;4908503;29;20083;-83
2024/03/16 03:23:45;;;;;;;12.32;6.57;;;;;;;10.59;100.00;100239.28;4922843;28;20063;-82
2024/03/16 03:26:15;;;;;;;14.13;7.63;;;;;;;10.62;100.00;100237.50;4957891;28;20046;-83
2024/03/16 03:28:45;;;;;;;12.80;6.72;;;;;;;10.60;100.00;100237.53;4936544;28;20114;-82
2024/03/16 03:31:13;;;;;;;11.80;6.50;;;;;;;10.61;100.00;100239.25;4944465;28;20057;-83
2024/03/16 03:33:40;;;;;;;13.55;6.45;;;;;;;10.66;100.00;100236.56;4932743;28;20051;-84
2024/03/16 03:36:10;;;;;;;11.43;6.38;;;;;;;10.68;100.00;100240.91;4962877;28;20099;-83
2024/03/16 03:38:40;;;;;;;11.23;5.88;;;;;;;10.70;100.00;100233.91;4945886;28;20047;-83
2024/03/16 03:41:18;;;;;;;13.68;5.68;;;;;;;10.71;100.00;100245.22;4927834;28;20039;-82
2024/03/16 03:43:57;;;;;;;8.27;5.68;;;;;;;10.69;100.00;100240.00;4951006;28;20057;-83
2024/03/16 03:46:39;;;;;;;17.63;6.57;;;;;;;10.63;100.00;100241.88;4939680;28;20051;-83
2024/03/16 03:49:26;;;;;;;9.18;5.60;;;;;;;10.64;100.00;100241.84;4951871;28;20051;-81
2024/03/16 03:51:54;;;;;;;13.02;5.85;;;;;;;10.62;100.00;100235.75;4934174;28;20055;-82
2024/03/16 03:54:27;;;;;;;12.43;6.25;;;;;;;10.57;100.00;100241.06;4946313;28;20119;-83
2024/03/16 03:56:54;;;;;;;9.80;6.22;;;;;;;10.56;100.00;100241.97;4927294;28;20118;-82
2024/03/16 03:59:26;;;;;;;11.55;5.78;;;;;;;10.55;100.00;100249.84;4961076;28;20098;-81
2024/03/16 04:01:56;;;;;;;10.48;5.43;;;;;;;10.57;100.00;100248.03;4928003;28;20046;-83
2024/03/16 04:04:26;;;;;;;12.52;6.32;;;;;;;10.54;100.00;100241.09;4942638;28;20051;-82
2024/03/16 04:06:58;;;;;;;8.45;5.05;;;;;;;10.55;100.00;100244.59;4935145;28;20134;-84
2024/03/16 04:09:27;;;;;;;12.00;5.47;;;;;;;10.56;100.00;100252.44;4957378;28;20042;-83
2024/03/16 04:11:57;;;;;;;12.38;5.15;;;;;;;10.56;100.00;100244.56;4952583;28;20043;-81
2024/03/16 04:14:27;;;;;;;10.32;4.93;;;;;;;10.61;100.00;100241.00;4957125;28;20659;-82
2024/03/16 04:16:56;;;;;;;9.95;4.90;;;;;;;10.69;100.00;100249.59;4941498;28;20055;-82
2024/03/16 04:19:23;;;;;;;10.60;4.90;;;;;;;10.74;100.00;100250.38;4926563;28;20424;-81
2024/03/16 04:21:51;;;;;;;7.50;4.47;;;;;;;10.70;100.00;100236.50;4941365;28;20071;-82
2024/03/16 04:24:18;;;;;;;9.13;5.25;;;;;;;10.74;100.00;100253.00;4936089;28;20114;-82
2024/03/16 04:26:50;;;;;;;11.98;5.68;;;;;;;10.74;100.00;100255.63;4961109;28;20564;-83
2024/03/16 04:29:17;;;;;;;9.38;6.22;;;;;;;10.71;100.00;100251.31;4935862;29;20039;-83
2024/03/16 04:31:45;;;;;;;14.18;7.00;;;;;;;10.70;100.00;100252.22;4934361;28;20093;-82
2024/03/16 04:34:12;;;;;;;9.77;5.85;;;;;;;10.72;100.00;100252.19;4951585;28;20047;-83
2024/03/16 04:36:41;;;;;;;9.20;5.47;;;;;;;10.71;100.00;100255.69;4931262;28;20055;-82
2024/03/16 04:39:08;;;;;;;7.75;5.32;;;;;;;10.72;100.00;100252.19;4946281;28;20053;-83
2024/03/16 04:41:37;;;;;;;9.13;5.90;;;;;;;10.70;100.00;100254.84;4936096;28;20503;-83
2024/03/16 04:44:09;;;;;;;11.13;5.72;;;;;;;10.64;100.00;100249.69;4946078;28;20063;-82
2024/03/16 04:46:41;;;;;;;8.88;5.95;;;;;;;10.58;100.00;100239.31;4937922;28;20570;-83
2024/03/16 04:49:08;;;;;;;18.52;7.55;;;;;;;10.56;100.00;100251.56;4946187;28;20114;-83
2024/03/16 04:51:41;;;;;;;10.82;5.53;;;;;;;10.52;100.00;100249.88;4970431;28;20059;-82
2024/03/16 04:54:10;;;;;;;7.78;5.97;;;;;;;10.55;100.00;100255.06;4950962;28;20047;-81
2024/03/16 04:56:48;;;;;;;12.98;6.68;;;;;;;10.56;100.00;100251.56;4945322;28;20055;-83
2024/03/16 04:59:15;;;;;;;10.07;5.47;;;;;;;10.56;100.00;100254.19;4943035;28;20129;-84
2024/03/16 05:01:45;;;;;;;7.53;6.60;;;;;;;10.58;100.00;100273.34;4957872;28;20146;-84
2024/03/16 05:04:14;;;;;;;10.15;6.20;;;;;;;10.63;100.00;100276.75;4965895;28;20036;-82
2024/03/16 05:06:46;;;;;;;12.00;7.93;;;;;;;10.65;100.00;100266.25;4949878;28;20087;-82
2024/03/16 05:09:13;;;;;;;8.77;7.38;;;;;;;10.64;100.00;100278.50;4948855;28;20059;-83
2024/03/16 05:11:45;;;;;;;12.73;7.57;;;;;;;10.67;100.00;100275.81;4949599;28;20589;-83
2024/03/16 05:14:12;;;;;;;14.98;7.47;;;;;;;10.71;100.00;100268.78;4955012;28;20055;-84
2024/03/16 05:16:42;;;;;;;10.20;8.00;;;;;;;10.69;100.00;100268.81;4954566;28;20044;-83
2024/03/16 05:19:12;;;;;;;10.70;8.20;;;;;;;10.71;100.00;100268.78;4958733;28;20138;-82
2024/03/16 05:21:45;;;;;;;15.50;9.20;;;;;;;10.70;100.00;100272.28;4928845;28;20086;-84
2024/03/16 05:24:18;;;;;;;12.32;8.73;;;;;;;10.67;100.00;100265.34;4945403;28;21104;-84
2024/03/16 05:26:47;;;;;;;13.02;8.65;;;;;;;10.68;100.00;100269.69;4910594;29;20067;-84
2024/03/16 05:29:15;;;;;;;13.02;8.50;;;;;;;10.64;100.00;100259.28;4927944;29;20090;-85
2024/03/16 05:31:58;;;;;;;16.15;9.07;;;;;;;10.62;100.00;100269.78;4940667;28;20107;-82
2024/03/16 05:34:25;;;;;;;14.93;8.68;;;;;;;10.61;100.00;100275.91;4909714;29;20570;-80
2024/03/16 05:36:52;;;;;;;18.63;9.43;;;;;;;10.58;100.00;100276.81;4923691;29;20054;-83
2024/03/16 05:39:20;;;;;;;14.35;10.02;;;;;;;10.56;100.00;100283.84;4944299;29;20107;-82
2024/03/16 05:41:46;;;;;;;11.93;8.88;;;;;;;10.53;100.00;100278.66;4940808;29;20130;-82
2024/03/16 05:44:15;;;;;;;16.50;11.35;;;;;;;10.41;100.00;100287.53;4918392;29;20075;-82
2024/03/16 05:46:41;;;;;;;20.25;11.00;;;;;;;10.34;100.00;100293.72;4924548;29;20068;-82
2024/03/16 05:49:14;;;;;;;14.23;9.05;;;;;;;10.31;100.00;100298.13;4907645;29;20050;-82
2024/03/16 05:51:41;;;;;;;13.13;9.67;;;;;;;10.27;100.00;100292.06;4926669;29;20052;-82
2024/03/16 05:54:09;;;;;;;16.38;10.18;;;;;;;10.29;100.00;100295.53;4912786;29;20996;-81
2024/03/16 05:56:36;;;;;;;17.27;9.73;;;;;;;10.23;100.00;100301.72;4928233;29;20067;-82
2024/03/16 05:59:05;;;;;;;17.95;9.45;;;;;;;10.23;100.00;100306.06;4927304;29;20043;-82
2024/03/16 06:01:32;;;;;;;20.27;9.25;;;;;;;10.22;100.00;100306.94;4941566;29;20047;-81
2024/03/16 06:03:59;;;;;;;12.77;9.23;;;;;;;10.21;100.00;100319.16;4935558;29;20078;-82
2024/03/16 06:06:32;;;;;;;15.57;9.07;;;;;;;10.23;100.00;100319.13;4909835;29;20469;-81
2024/03/16 06:09:02;;;;;;;14.15;9.20;;;;;;;10.16;100.00;100326.19;4909942;29;20535;-83
2024/03/16 06:11:29;;;;;;;14.60;10.00;;;;;;;10.13;100.00;100321.03;4915618;29;20052;-80
2024/03/16 06:13:56;;;;;;;14.18;8.82;;;;;;;10.12;100.00;100328.88;4936275;29;20069;-83
2024/03/16 06:16:22;;;;;;;10.00;8.10;;;;;;;10.13;100.00;100334.09;4911839;29;20420;-82
2024/03/16 06:18:51;;;;;;;15.40;9.15;;;;;;;10.14;100.00;100335.81;4938814;29;20057;-81
2024/03/16 06:21:18;;;;;;;16.63;8.85;;;;;;;10.13;100.00;100343.69;4925952;29;20422;-83
2024/03/16 06:23:53;;;;;;;12.20;8.25;;;;;;;10.14;100.00;100345.41;4923052;28;20106;-83
2024/03/16 06:26:20;;;;;;;11.32;8.05;;;;;;;10.17;100.00;100342.75;4956698;28;20079;-82
2024/03/16 06:28:54;;;;;;;13.85;8.73;;;;;;;10.16;100.00;100341.91;4947525;28;20294;-84
2024/03/16 06:31:31;;;;;;;12.65;8.25;;;;;;;10.15;100.00;100349.78;4926527;29;20046;-82
2024/03/16 06:34:04;;;;;;;13.13;8.10;;;;;;;10.13;100.00;100343.69;4925527;28;20622;-84
2024/03/16 06:36:36;;;;;;;11.85;9.05;;;;;;;10.16;100.00;100352.34;4930542;28;20094;-82
2024/03/16 06:39:06;;;;;;;9.10;8.10;;;;;;;10.25;100.00;100354.00;4946809;28;20335;-83
2024/03/16 06:41:33;;;;;;;15.98;8.88;;;;;;;10.30;100.00;100357.44;4936678;28;20074;-82
2024/03/16 06:44:00;;;;;;;12.60;9.32;;;;;;;10.33;100.00;100362.63;4936593;28;20045;-84
2024/03/16 06:46:26;;;;;;;16.45;8.98;;;;;;;10.38;100.00;100352.13;4929090;28;20054;-83
2024/03/16 06:48:56;;;;;;;11.85;8.40;;;;;;;10.41;100.00;100352.09;4940792;28;20043;-82
2024/03/16 06:51:23;;;;;;;12.13;8.55;;;;;;;10.46;100.00;100349.41;4934328;28;20086;-83
2024/03/16 06:53:50;;;;;;;11.68;8.73;;;;;;;10.48;100.00;100364.22;4927868;28;20051;-82
2024/03/16 06:56:18;;;;;;;12.20;7.80;;;;;;;10.50;100.00;100369.44;4950259;28;20038;-82
2024/03/16 06:58:46;;;;;;;11.60;8.15;;;;;;;10.47;100.00;100364.22;4940721;28;20051;-84
2024/03/16 07:01:14;;;;;;;15.30;9.27;;;;;;;10.46;100.00;100375.59;4933984;29;20121;-82
2024/03/16 07:03:41;;;;;;;12.35;8.77;;;;;;;10.45;100.00;100381.69;4925040;28;20049;-82
2024/03/16 07:06:08;;;;;;;13.77;8.25;;;;;;;10.36;100.00;100382.69;4931270;28;20130;-82
2024/03/16 07:08:39;;;;;;;16.88;10.20;;;;;;;10.21;100.00;100391.56;4933012;28;20178;-82
2024/03/16 07:11:10;;;;;;;13.57;9.05;;;;;;;10.16;100.00;100402.06;4930038;28;20075;-84
2024/03/16 07:13:37;;;;;;;17.02;9.10;;;;;;;10.17;100.00;100406.41;4928340;28;20097;-82
2024/03/16 07:16:05;;;;;;;16.27;10.95;;;;;;;10.15;100.00;100409.94;4946883;28;20277;-81
2024/03/16 07:18:35;;;;;;;13.20;10.10;;;;;;;10.12;100.00;100421.28;4960127;28;20050;-82
2024/03/16 07:21:15;;;;;;;14.90;9.38;;;;;;;10.10;100.00;100444.84;4935717;28;20044;-83
2024/03/16 07:23:43;;;;;;;16.75;10.10;;;;;;;10.04;100.00;100447.53;4931552;29;20648;-81
2024/03/16 07:26:10;;;;;;;17.80;11.00;;;;;;;9.87;100.00;100457.28;4907282;29;20166;-81
2024/03/16 07:28:37;;;;;;;10.65;8.88;;;;;;;9.77;100.00;100472.19;4907791;29;20411;-82
2024/03/16 07:31:04;;;;;;;17.67;8.38;;;;;;;9.72;100.00;100487.03;4913094;29;20082;-82
2024/03/16 07:33:36;;;;;;;15.65;7.65;;;;;;;9.66;100.00;100493.19;4916195;29;20055;-82
2024/03/16 07:36:08;;;;;;;10.80;7.25;;;;;;;9.60;100.00;100504.53;4914669;29;20062;-82
2024/03/16 07:38:58;;;;;;;7.85;5.40;;;;;;;9.49;100.00;100523.78;4927770;29;20416;-82
2024/03/16 07:41:26;;;;;;;4.82;3.80;;;;;;;9.18;100.00;100531.81;4932584;29;20054;-82
2024/03/16 07:44:00;;;;;;;2.58;2.17;;;;;;;8.96;100.00;100533.63;4917062;29;20062;-82
2024/03/16 07:46:27;;;;;;;2.22;2.03;;;;;;;8.87;100.00;100537.19;4917630;29;20086;-82
2024/03/16 07:48:59;;;;;;;0.98;0.98;;;;;;;8.77;100.00;100550.25;4927050;29;20075;-81
2024/03/16 07:51:28;;;;;;;0.90;0.90;;;;;;;8.75;100.00;100548.53;4948274;29;20099;-82
2024/03/16 07:53:56;;;;;;;2.47;1.30;;;;;;;8.82;100.00;100554.59;4923129;29;20060;-82
2024/03/16 07:56:23;;;;;;;1.27;1.20;;;;;;;8.89;100.00;100551.97;4938177;29;20137;-83
2024/03/16 07:58:51;;;;;;;1.95;0.88;;;;;;;8.89;100.00;100562.41;4926221;29;20147;-82
2024/03/16 08:01:19;;;;;;;1.40;1.08;;;;;;;8.96;100.00;100560.63;4913171;29;20075;-82
2024/03/16 08:03:53;;;;;;;0.70;0.70;;;;;;;8.93;100.00;100568.50;4913624;29;20134;-82
2024/03/16 08:06:23;;;;;;;1.33;1.23;;;;;;;8.92;100.00;100578.03;4922877;29;20497;-82
2024/03/16 08:08:52;;;;;;;1.38;0.85;;;;;;;9.03;100.00;100577.13;4926547;29;20086;-83
2024/03/16 08:11:24;;;;;;;2.35;1.17;;;;;;;9.15;100.00;100586.66;4917987;29;20052;-83
2024/03/16 08:14:15;;;;;;;3.58;1.60;;;;;;;9.22;100.00;100594.47;4915704;29;20083;-83
2024/03/16 08:16:43;;;;;;;1.25;1.15;;;;;;;9.14;100.00;100600.59;4923569;29;20063;-82
2024/03/16 08:22:02;;;;;;;2.45;1.45;;;;;;;9.10;100.00;100611.06;4948417;29;20047;-84
2024/03/16 08:24:36;;;;;;;1.50;1.40;;;;;;;9.09;100.00;100614.53;4938330;28;20068;-84
2024/03/16 08:27:29;;;;;;;1.45;1.35;;;;;;;9.17;100.00;100619.72;4906975;29;21279;-83
2024/03/16 08:30:12;;;;;;;2.17;2.05;;;;;;;9.22;100.00;100628.44;4932385;29;20052;-83
2024/03/16 08:32:42;;;;;;;2.22;1.90;;;;;;;9.20;100.00;100627.53;4930157;29;20048;-82
2024/03/16 08:35:13;;;;;;;4.47;2.10;;;;;;;9.33;100.00;100638.81;4915381;29;20151;-82
2024/03/16 08:37:43;;;;;;;1.75;1.52;;;;;;;9.43;100.00;100637.06;4918340;29;20051;-82
2024/03/16 08:40:28;;;;;;;2.33;2.10;;;;;;;9.69;100.00;100638.66;4930892;29;20042;-81
2024/03/16 08:42:59;;;;;;;3.45;1.90;;;;;;;9.76;100.00;100645.59;4945291;29;20039;-82
2024/03/16 08:45:26;;;;;;;2.50;2.30;;;;;;;9.60;100.00;100652.66;4899900;29;20070;-82
2024/03/16 08:47:53;;;;;;;2.10;2.00;;;;;;;9.52;100.00;100638.75;4931700;29;20058;-83
2024/03/16 08:50:34;;;;;;;3.30;1.90;;;;;;;9.47;100.00;100649.22;4914989;29;20055;-82
2024/03/16 08:53:10;;;;;;;1.95;1.85;;;;;;;9.37;100.00;100665.81;4914893;29;20075;-83
2024/03/16 08:55:42;;;;;;;2.22;1.55;;;;;;;9.20;100.00;100671.09;4904684;29;20146;-84
2024/03/16 08:58:18;;;;;;;1.60;1.00;;;;;;;8.83;100.00;100681.63;4931165;29;20067;-82
2024/03/16 09:00:46;;;;;;;0.70;0.70;;;;;;;8.61;100.00;100699.91;4909413;29;20072;-83
2024/03/16 09:03:13;;;;;;;4.10;0.52;;;;;;;8.49;100.00;100708.59;4907943;29;20079;-80
2024/03/16 09:05:49;;;;;;;1.50;0.88;;;;;;;8.52;100.00;100716.41;4912042;29;20064;-82
2024/03/16 09:08:18;;;;;;;1.02;0.90;;;;;;;8.45;100.00;100719.88;4927597;29;20040;-83
2024/03/16 09:10:51;;;;;;;3.10;0.93;;;;;;;8.48;100.00;100729.47;4908466;29;20069;-83
2024/03/16 09:13:19;;;;;;;1.23;0.60;;;;;;;8.47;100.00;100744.25;4931452;29;20047;-84
2024/03/16 09:15:48;;;;;;;2.85;1.10;;;;;;;8.38;100.00;100745.09;4912337;29;20043;-83
2024/03/16 09:18:16;;;;;;;2.78;0.55;;;;;;;8.38;100.00;100734.66;4944271;28;20066;-84
2024/03/16 09:20:46;;;;;;;2.00;0.90;;;;;;;8.55;100.00;100746.84;4959700;28;20043;-84
2024/03/16 09:23:13;;;;;;;2.72;0.98;;;;;;;8.82;100.00;100748.59;4917140;29;20055;-83
2024/03/16 09:25:41;;;;;;;3.10;0.63;;;;;;;8.99;100.00;100759.03;4948466;29;20043;-83
2024/03/16 09:28:11;;;;;;;2.63;0.75;;;;;;;9.06;100.00;100763.41;4945449;29;20044;-83
2024/03/16 09:30:44;;;;;;;3.20;0.90;;;;;;;9.06;100.00;100767.75;4946186;29;20048;-82
2024/03/16 09:33:16;;;;;;;2.35;0.52;;;;;;;9.10;100.00;100772.13;4947670;28;20082;-82
2024/03/16 09:35:45;;;;;;;2.00;0.98;;;;;;;8.99;100.00;100774.72;4944493;29;20102;-82
2024/03/16 09:38:15;;;;;;;2.15;1.17;;;;;;;9.14;100.00;100784.28;4965193;28;20051;-83
2024/03/16 09:40:46;;;;;;;1.13;0.77;;;;;;;9.38;100.00;100795.56;4955175;28;20085;-83
2024/03/16 09:43:19;;;;;;;2.03;1.00;;;;;;;9.26;100.00;100797.31;4944426;28;20154;-82
2024/03/16 09:45:47;;;;;;;3.10;0.95;;;;;;;9.08;100.00;100811.25;4943137;29;20043;-82
2024/03/16 09:48:15;;;;;;;1.13;0.55;;;;;;;8.94;100.00;100824.34;4969007;28;20111;-82
2024/03/16 09:50:49;;;;;;;3.08;0.73;;;;;;;8.45;100.00;100826.84;4962169;28;20044;-82
2024/03/16 09:53:31;;;;;;;3.05;1.70;;;;;;;8.31;100.00;100833.75;4957016;28;20082;-83
2024/03/16 09:56:04;;;;;;;2.25;1.00;;;;;;;8.39;100.00;100838.09;4950084;29;20102;-81
2024/03/16 09:58:35;;;;;;;2.70;1.38;;;;;;;8.61;100.00;100838.19;4929553;29;20087;-81
2024/03/16 10:01:15;;;;;;;4.22;1.60;;;;;;;9.05;100.00;100854.81;4936306;28;20471;-81
2024/03/16 10:03:45;;;;;;;10.05;2.70;;;;;;;9.45;100.00;100857.38;4936520;29;20059;-81
2024/03/16 10:06:15;;;;;;;7.47;1.13;;;;;;;9.82;100.00;100852.09;4944455;28;20053;-81
2024/03/16 10:08:49;;;;;;;5.05;1.50;;;;;;;9.94;100.00;100857.28;4946482;28;20046;-82
2024/03/16 10:11:19;;;;;;;6.65;1.33;;;;;;;10.41;100.00;100863.22;4941571;28;20050;-82
2024/03/16 10:14:02;;;;;;;3.65;1.25;;;;;;;11.91;99.01;100855.94;4959145;28;20323;-84
2024/03/16 10:16:40;;;;;;;8.57;1.30;;;;;;;12.77;89.74;100851.34;4939197;29;20065;-82
2024/03/16 10:19:10;;;;;;;4.32;1.35;;;;;;;12.04;82.69;100867.19;4965201;28;20043;-82
2024/03/16 10:21:37;;;;;;;2.67;1.30;;;;;;;12.02;84.28;100877.72;4946441;28;20181;-85
2024/03/16 10:24:07;;;;;;;3.22;1.15;;;;;;;12.96;81.71;100878.22;4978741;28;20073;-84
2024/03/16 10:26:35;;;;;;;3.08;1.00;;;;;;;13.15;78.95;100867.41;4948803;28;20107;-83
2024/03/16 10:29:19;;;;;;;3.45;1.08;;;;;;;12.41;79.01;100888.63;4947839;28;20119;-81
2024/03/16 10:31:46;;;;;;;4.60;1.98;;;;;;;11.72;81.50;100897.22;4955309;28;20103;-82
2024/03/16 10:34:12;;;;;;;7.47;1.48;;;;;;;11.05;84.61;100903.00;4976319;28;20043;-83
2024/03/16 10:36:44;;;;;;;3.20;1.10;;;;;;;10.78;86.10;100908.44;4947698;28;20047;-83
2024/03/16 10:39:16;;;;;;;4.70;0.90;;;;;;;10.18;85.51;100922.59;4949061;28;20043;-82
2024/03/16 10:41:47;;;;;;;3.67;0.90;;;;;;;9.83;85.23;100923.56;4930851;28;20114;-83
2024/03/16 10:44:14;;;;;;;6.07;2.38;;;;;;;9.80;85.09;100931.41;4946963;28;20575;-83
2024/03/16 10:46:44;;;;;;;3.65;0.95;;;;;;;9.67;83.99;100938.41;4952044;28;20154;-82
2024/03/16 10:49:14;;;;;;;1.83;1.10;;;;;;;9.62;84.61;100938.41;4958614;28;20053;-82
2024/03/16 10:51:44;;;;;;;4.57;1.02;;;;;;;9.37;83.35;100950.59;4949716;28;20053;-83
2024/03/16 10:54:15;;;;;;;2.58;0.68;;;;;;;9.44;82.15;100961.06;4945365;28;20078;-84
2024/03/16 10:56:45;;;;;;;4.53;1.05;;;;;;;9.60;84.05;100961.91;4980763;28;20059;-83
2024/03/16 10:59:32;;;;;;;4.15;1.17;;;;;;;9.80;81.35;100965.41;4961329;28;20077;-83
2024/03/16 11:01:59;;;;;;;5.65;0.95;;;;;;;9.80;79.42;100974.09;4960273;28;20081;-83
2024/03/16 11:04:27;;;;;;;3.63;1.08;;;;;;;9.76;78.25;100965.41;4941150;29;20070;-82
2024/03/16 11:06:54;;;;;;;3.00;0.90;;;;;;;10.05;75.30;100976.69;4949501;28;20582;-82
2024/03/16 11:09:27;;;;;;;6.30;1.02;;;;;;;10.25;73.81;100977.53;4962687;28;20051;-81
2024/03/16 11:11:56;;;;;;;5.15;1.33;;;;;;;10.16;73.90;100980.19;4963293;28;20419;-83
2024/03/16 11:14:23;;;;;;;3.38;0.70;;;;;;;10.23;71.62;100992.38;4967533;28;20111;-83
2024/03/16 11:16:56;;;;;;;6.15;1.27;;;;;;;10.36;71.17;100984.53;4969086;28;20046;-83
2024/03/16 11:19:23;;;;;;;2.60;1.17;;;;;;;10.22;70.76;100994.97;4959467;28;20039;-83
2024/03/16 11:21:54;;;;;;;3.38;0.82;;;;;;;10.16;71.29;101006.34;4956823;28;20089;-82
2024/03/16 11:24:24;;;;;;;4.88;1.27;;;;;;;10.28;70.62;100997.59;4943343;28;20049;-82
2024/03/16 11:26:52;;;;;;;7.35;1.27;;;;;;;9.93;71.41;100999.41;4961132;28;20075;-83
2024/03/16 11:29:51;;;;;;;5.95;1.10;;;;;;;9.83;70.79;101005.50;4946540;28;20047;-83
2024/03/16 11:32:18;;;;;;;12.38;2.03;;;;;;;9.67;71.76;101014.22;4935337;28;20055;-82
2024/03/16 11:34:48;;;;;;;4.65;0.90;;;;;;;9.77;72.43;101008.09;4961879;28;20115;-82